Time;durP1;ratioP1;P1;durP2;ratioP2;P2;SDS_P1;SDS_P2;PMS_P1;PMS_P2;Temp;Humidity;BMP_temperature;BMP_pressure;BME280_temperature;BME280_humidity;BME280_pressure;Samples;Min_cycle;Max_cycle;Signal;HPM_P1;HPM_P2
2022/06/03 00:01:07;;;;;;;;;;;;;;;;;;5092625;28;19911;-51
2022/06/03 00:03:34;;;;;;;;;;;;;;;;;;5093918;28;19915;-46
2022/06/03 00:06:00;;;;;;;;;;;;;;;;;;5094477;28;19908;-53
2022/06/03 00:08:27;;;;;;;;;;;;;;;;;;5094027;28;20471;-58
2022/06/03 00:10:53;;;;;;;;;;;;;;;;;;5093905;28;19904;-56
2022/06/03 00:13:19;;;;;;;;;;;;;;;;;;5094136;28;19908;-49
2022/06/03 00:15:46;;;;;;;;;;;;;;;;;;5093347;28;19916;-54
2022/06/03 00:18:12;;;;;;;;;;;;;;;;;;5094092;28;19908;-51
2022/06/03 00:20:39;;;;;;;;;;;;;;;;;;5093460;28;19908;-53
2022/06/03 00:23:06;;;;;;;;;;;;;;;;;;5093895;28;19998;-53
2022/06/03 00:25:32;;;;;;;;;;;;;;;;;;5093978;28;19915;-49
2022/06/03 00:27:59;;;;;;;;;;;;;;;;;;5093409;28;19908;-46
2022/06/03 00:30:26;;;;;;;;;;;;;;;;;;5075323;28;20343;-49
2022/06/03 00:32:52;;;;;;;;;;;;;;;;;;5093493;28;19908;-48
2022/06/03 00:35:19;;;;;;;;;;;;;;;;;;5093034;28;20115;-47
2022/06/03 00:37:45;;;;;;;;;;;;;;;;;;5092949;28;19911;-57
2022/06/03 00:40:11;;;;;;;;;;;;;;;;;;5092869;28;20003;-55
2022/06/03 00:42:38;;;;;;;;;;;;;;;;;;5092982;28;19908;-49
2022/06/03 00:45:05;;;;;;;;;;;;;;;;;;5092858;28;19908;-57
2022/06/03 00:47:32;;;;;;;;;;;;;;;;;;5075484;28;19908;-53
2022/06/03 00:50:00;;;;;;;;;;;;;;;;;;5093547;28;19999;-50
2022/06/03 00:52:27;;;;;;;;;;;;;;;;;;5093260;28;20374;-48
2022/06/03 00:54:53;;;;;;;;;;;;;;;;;;5092980;28;19962;-53
2022/06/03 00:57:20;;;;;;;;;;;;;;;;;;5093453;28;19916;-54
2022/06/03 00:59:46;;;;;;;;;;;;;;;;;;5093077;28;20011;-53
2022/06/03 01:02:14;;;;;;;;;;;;;;;;;;5092344;28;19915;-50
2022/06/03 01:04:41;;;;;;;;;;;;;;;;;;5092791;28;20228;-54
2022/06/03 01:07:07;;;;;;;;;;;;;;;;;;5093049;28;19978;-46
2022/06/03 01:09:34;;;;;;;;;;;;;;;;;;5074475;28;19919;-55
2022/06/03 01:12:01;;;;;;;;;;;;;;;;;;5092920;28;20373;-56
2022/06/03 01:14:28;;;;;;;;;;;;;;;;;;5092372;28;19908;-54
2022/06/03 01:16:54;;;;;;;;;;;;;;;;;;5092645;28;20015;-52
2022/06/03 01:19:21;;;;;;;;;;;;;;;;;;5092594;28;20278;-56
2022/06/03 01:21:47;;;;;;;;;;;;;;;;;;5092600;28;19908;-55
2022/06/03 01:24:14;;;;;;;;;;;;;;;;;;5091415;28;19986;-52
2022/06/03 01:26:40;;;;;;;;;;;;;;;;;;5091797;28;20278;-55
2022/06/03 01:29:07;;;;;;;;;;;;;;;;;;5091740;28;20013;-58
2022/06/03 01:31:34;;;;;;;;;;;;;;;;;;5092309;28;19908;-56
2022/06/03 01:34:00;;;;;;;;;;;;;;;;;;5092198;28;19912;-58
2022/06/03 01:36:27;;;;;;;;;;;;;;;;;;5091869;28;20012;-55
2022/06/03 01:38:53;;;;;;;;;;;;;;;;;;5092327;28;19908;-57
2022/06/03 01:41:20;;;;;;;;;;;;;;;;;;5092393;28;20003;-52
2022/06/03 01:43:46;;;;;;;;;;;;;;;;;;5092701;28;19908;-50
2022/06/03 01:46:13;;;;;;;;;;;;;;;;;;5092600;28;20024;-48
2022/06/03 01:48:39;;;;;;;;;;;;;;;;;;5092221;28;19909;-56
2022/06/03 01:51:06;;;;;;;;;;;;;;;;;;5092264;28;19916;-53
2022/06/03 01:53:32;;;;;;;;;;;;;;;;;;5091585;28;19908;-50
2022/06/03 01:55:59;;;;;;;;;;;;;;;;;;5091922;28;20328;-57
2022/06/03 01:58:25;;;;;;;;;;;;;;;;;;5092312;28;19909;-54
2022/06/03 02:00:52;;;;;;;;;;;;;;;;;;5092712;28;19908;-54
2022/06/03 02:03:18;;;;;;;;;;;;;;;;;;5092075;28;19999;-59
2022/06/03 02:05:45;;;;;;;;;;;;;;;;;;5092232;28;19909;-55
2022/06/03 02:08:11;;;;;;;;;;;;;;;;;;5092031;28;20423;-47
2022/06/03 02:10:38;;;;;;;;;;;;;;;;;;5091979;28;19931;-51
2022/06/03 02:13:04;;;;;;;;;;;;;;;;;;5092715;28;19908;-56
2022/06/03 02:15:31;;;;;;;;;;;;;;;;;;5087282;28;20290;-55
2022/06/03 02:17:57;;;;;;;;;;;;;;;;;;5091997;28;19919;-56
2022/06/03 02:20:24;;;;;;;;;;;;;;;;;;5092551;28;19944;-50
2022/06/03 02:22:50;;;;;;;;;;;;;;;;;;5093820;28;19918;-51
2022/06/03 02:25:17;;;;;;;;;;;;;;;;;;5096218;28;19908;-54
2022/06/03 02:27:43;;;;;;;;;;;;;;;;;;5096270;28;19975;-55
2022/06/03 02:30:25;;;;;;;;;;;;;;;;;;5096074;28;20367;-57
2022/06/03 02:32:51;;;;;;;;;;;;;;;;;;5095590;28;20392;-53
2022/06/03 02:35:18;;;;;;;;;;;;;;;;;;5096189;28;19935;-56
2022/06/03 02:37:44;;;;;;;;;;;;;;;;;;5095958;28;19995;-58
2022/06/03 02:40:11;;;;;;;;;;;;;;;;;;5095784;28;20278;-53
2022/06/03 02:42:38;;;;;;;;;;;;;;;;;;5095218;28;19909;-57
2022/06/03 02:45:04;;;;;;;;;;;;;;;;;;5095493;28;19908;-60
2022/06/03 02:47:31;;;;;;;;;;;;;;;;;;5095969;28;19908;-56
2022/06/03 02:49:58;;;;;;;;;;;;;;;;;;5095535;28;19909;-58
2022/06/03 02:52:24;;;;;;;;;;;;;;;;;;5095162;28;19961;-50
2022/06/03 02:54:51;;;;;;;;;;;;;;;;;;5094401;28;19912;-57
2022/06/03 02:57:18;;;;;;;;;;;;;;;;;;5095497;28;19985;-54
2022/06/03 02:59:44;;;;;;;;;;;;;;;;;;5095016;28;20316;-54
2022/06/03 03:02:11;;;;;;;;;;;;;;;;;;5095355;28;19908;-49
2022/06/03 03:04:37;;;;;;;;;;;;;;;;;;5094461;28;19915;-53
2022/06/03 03:07:04;;;;;;;;;;;;;;;;;;5098553;28;20372;-51
2022/06/03 03:09:30;;;;;;;;;;;;;;;;;;5115343;28;19919;-51
2022/06/03 03:11:57;;;;;;;;;;;;;;;;;;5114954;28;19916;-55
2022/06/03 03:14:23;;;;;;;;;;;;;;;;;;5114701;28;19935;-45
2022/06/03 03:16:50;;;;;;;;;;;;;;;;;;5115110;28;20404;-53
2022/06/03 03:19:16;;;;;;;;;;;;;;;;;;5114815;28;19912;-53
2022/06/03 03:21:43;;;;;;;;;;;;;;;;;;5114829;28;19951;-60
2022/06/03 03:24:09;;;;;;;;;;;;;;;;;;5114699;28;20288;-50
2022/06/03 03:26:36;;;;;;;;;;;;;;;;;;5114656;28;19908;-53
2022/06/03 03:29:04;;;;;;;;;;;;;;;;;;5115236;28;19912;-58
2022/06/03 03:31:30;;;;;;;;;;;;;;;;;;5115115;28;20378;-56
2022/06/03 03:33:57;;;;;;;;;;;;;;;;;;5112960;28;19912;-54
2022/06/03 03:36:24;;;;;;;;;;;;;;;;;;5113780;28;19915;-58
2022/06/03 03:38:50;;;;;;;;;;;;;;;;;;5112983;28;19912;-53
2022/06/03 03:41:19;;;;;;;;;;;;;;;;;;5113370;28;19915;-52
2022/06/03 03:43:45;;;;;;;;;;;;;;;;;;5111961;28;20425;-49
2022/06/03 03:46:12;;;;;;;;;;;;;;;;;;5114263;28;19911;-46
2022/06/03 03:48:38;;;;;;;;;;;;;;;;;;5114863;28;19908;-50
2022/06/03 03:51:04;;;;;;;;;;;;;;;;;;5114514;28;19908;-49
2022/06/03 03:53:31;;;;;;;;;;;;;;;;;;5114496;28;19930;-53
2022/06/03 03:55:58;;;;;;;;;;;;;;;;;;5113265;28;20345;-58
2022/06/03 03:58:25;;;;;;;;;;;;;;;;;;5114019;28;19953;-54
2022/06/03 04:00:52;;;;;;;;;;;;;;;;;;5114149;28;19904;-47
2022/06/03 04:03:18;;;;;;;;;;;;;;;;;;5113762;28;19908;-56
2022/06/03 04:05:45;;;;;;;;;;;;;;;;;;5113787;28;19904;-55
2022/06/03 04:08:11;;;;;;;;;;;;;;;;;;5114145;28;19927;-50
2022/06/03 04:10:38;;;;;;;;;;;;;;;;;;5113800;28;19908;-53
2022/06/03 04:13:04;;;;;;;;;;;;;;;;;;5113152;28;20235;-55
2022/06/03 04:15:31;;;;;;;;;;;;;;;;;;5113359;28;19920;-53
2022/06/03 04:17:57;;;;;;;;;;;;;;;;;;5113992;27;19908;-55
2022/06/03 04:20:24;;;;;;;;;;;;;;;;;;5112228;28;19919;-42
2022/06/03 04:22:50;;;;;;;;;;;;;;;;;;5113839;28;19919;-50
2022/06/03 04:25:17;;;;;;;;;;;;;;;;;;5114138;28;19911;-51
2022/06/03 04:27:43;;;;;;;;;;;;;;;;;;5113949;28;19907;-47
2022/06/03 04:30:10;;;;;;;;;;;;;;;;;;5113547;28;19916;-57
2022/06/03 04:32:36;;;;;;;;;;;;;;;;;;5113547;28;19908;-60
2022/06/03 04:35:03;;;;;;;;;;;;;;;;;;5113598;28;19918;-54
2022/06/03 04:37:29;;;;;;;;;;;;;;;;;;5113397;28;19993;-50
2022/06/03 04:39:56;;;;;;;;;;;;;;;;;;5113451;28;19912;-55
2022/06/03 04:42:22;;;;;;;;;;;;;;;;;;5113635;28;19951;-53
2022/06/03 04:44:49;;;;;;;;;;;;;;;;;;5113218;28;19943;-54
2022/06/03 04:47:15;;;;;;;;;;;;;;;;;;5111682;28;20421;-56
2022/06/03 04:49:42;;;;;;;;;;;;;;;;;;5111791;28;19911;-53
2022/06/03 04:52:08;;;;;;;;;;;;;;;;;;5112920;28;20249;-54
2022/06/03 04:54:35;;;;;;;;;;;;;;;;;;5113431;28;19946;-59
2022/06/03 04:57:01;;;;;;;;;;;;;;;;;;5111477;28;19916;-53
2022/06/03 04:59:28;;;;;;;;;;;;;;;;;;5113414;28;19987;-54
2022/06/03 05:01:54;;;;;;;;;;;;;;;;;;5113306;28;19956;-55
2022/06/03 05:04:21;;;;;;;;;;;;;;;;;;5113119;28;19908;-56
2022/06/03 05:06:47;;;;;;;;;;;;;;;;;;5112116;28;19919;-49
2022/06/03 05:09:14;;;;;;;;;;;;;;;;;;5112749;28;19916;-48
2022/06/03 05:11:41;;;;;;;;;;;;;;;;;;5113154;28;19908;-52
2022/06/03 05:14:07;;;;;;;;;;;;;;;;;;5113224;28;19908;-52
2022/06/03 05:16:34;;;;;;;;;;;;;;;;;;5112209;28;20465;-52
2022/06/03 05:19:00;;;;;;;;;;;;;;;;;;5111109;28;19920;-53
2022/06/03 05:21:27;;;;;;;;;;;;;;;;;;5112762;28;19919;-54
2022/06/03 05:23:53;;;;;;;;;;;;;;;;;;5112705;28;19932;-57
2022/06/03 05:26:21;;;;;;;;;;;;;;;;;;5112766;28;19912;-48
2022/06/03 05:28:47;;;;;;;;;;;;;;;;;;5112672;28;20277;-47
2022/06/03 05:31:14;;;;;;;;;;;;;;;;;;5112754;28;19912;-53
2022/06/03 05:33:40;;;;;;;;;;;;;;;;;;5112252;28;19919;-54
2022/06/03 05:36:06;;;;;;;;;;;;;;;;;;5112190;28;20373;-59
2022/06/03 05:38:33;;;;;;;;;;;;;;;;;;5112055;28;19915;-53
2022/06/03 05:40:59;;;;;;;;;;;;;;;;;;5112560;28;19908;-55
2022/06/03 05:43:26;;;;;;;;;;;;;;;;;;5112748;28;19908;-49
2022/06/03 05:45:53;;;;;;;;;;;;;;;;;;5112828;28;19964;-57
2022/06/03 05:48:19;;;;;;;;;;;;;;;;;;5111194;28;19915;-56
2022/06/03 05:50:46;;;;;;;;;;;;;;;;;;5112419;28;19917;-54
2022/06/03 05:53:12;;;;;;;;;;;;;;;;;;5112196;28;19954;-56
2022/06/03 05:55:39;;;;;;;;;;;;;;;;;;5111576;28;19916;-49
2022/06/03 05:58:05;;;;;;;;;;;;;;;;;;5113989;28;19908;-47
2022/06/03 06:00:32;;;;;;;;;;;;;;;;;;5116468;28;19952;-50
2022/06/03 06:02:58;;;;;;;;;;;;;;;;;;5116244;28;19947;-55
2022/06/03 06:05:25;;;;;;;;;;;;;;;;;;5116730;28;20347;-55
2022/06/03 06:07:52;;;;;;;;;;;;;;;;;;5114866;28;19927;-53
2022/06/03 06:10:18;;;;;;;;;;;;;;;;;;5116291;28;19958;-54
2022/06/03 06:12:45;;;;;;;;;;;;;;;;;;5116252;28;20319;-50
2022/06/03 06:15:12;;;;;;;;;;;;;;;;;;5116534;28;19915;-51
2022/06/03 06:17:38;;;;;;;;;;;;;;;;;;5116058;28;20421;-53
2022/06/03 06:20:05;;;;;;;;;;;;;;;;;;5115736;28;19915;-59
2022/06/03 06:22:31;;;;;;;;;;;;;;;;;;5116024;28;19908;-51
2022/06/03 06:24:58;;;;;;;;;;;;;;;;;;5115487;28;19990;-54
2022/06/03 06:27:30;;;;;;;;;;;;;;;;;;5116017;28;20359;-50
2022/06/03 06:29:57;;;;;;;;;;;;;;;;;;5115290;28;20262;-49
2022/06/03 06:32:23;;;;;;;;;;;;;;;;;;5115756;28;19986;-54
2022/06/03 06:34:50;;;;;;;;;;;;;;;;;;5115710;28;19912;-51
2022/06/03 06:37:17;;;;;;;;;;;;;;;;;;5114615;28;20255;-52
2022/06/03 06:39:43;;;;;;;;;;;;;;;;;;5115518;28;19915;-50
2022/06/03 06:42:10;;;;;;;;;;;;;;;;;;5116242;28;20254;-43
2022/06/03 06:44:36;;;;;;;;;;;;;;;;;;5115110;28;20010;-56
2022/06/03 06:47:03;;;;;;;;;;;;;;;;;;5115432;28;19918;-43
2022/06/03 06:49:29;;;;;;;;;;;;;;;;;;5114448;28;20281;-50
2022/06/03 06:51:56;;;;;;;;;;;;;;;;;;5115003;28;20354;-59
2022/06/03 06:54:22;;;;;;;;;;;;;;;;;;5114941;28;19915;-53
2022/06/03 06:56:49;;;;;;;;;;;;;;;;;;5113992;28;20010;-54
2022/06/03 06:59:15;;;;;;;;;;;;;;;;;;5114760;28;19907;-57
2022/06/03 07:01:42;;;;;;;;;;;;;;;;;;5115420;28;19908;-51
2022/06/03 07:04:11;;;;;;;;;;;;;;;;;;5114734;28;20401;-52
2022/06/03 07:06:38;;;;;;;;;;;;;;;;;;5114750;28;19912;-52
2022/06/03 07:09:04;;;;;;;;;;;;;;;;;;5114113;27;19994;-56
2022/06/03 07:11:30;;;;;;;;;;;;;;;;;;5115205;28;20434;-49
2022/06/03 07:13:57;;;;;;;;;;;;;;;;;;5114597;28;19912;-57
2022/06/03 07:19:47;;;;;;;;;;;;;;;;;;5113511;28;20282;-58
2022/06/03 07:21:54;;;;;;;;;;;;;;;;;;5114439;28;19919;-51
2022/06/03 07:24:21;;;;;;;;;;;;;;;;;;5114650;28;19912;-53
2022/06/03 07:26:47;;;;;;;;;;;;;;;;;;5114227;28;19985;-48
2022/06/03 07:29:14;;;;;;;;;;;;;;;;;;5114520;28;19969;-56
2022/06/03 07:31:40;;;;;;;;;;;;;;;;;;5115024;28;19918;-53
2022/06/03 07:34:07;;;;;;;;;;;;;;;;;;5114712;28;19907;-59
2022/06/03 07:36:34;;;;;;;;;;;;;;;;;;5113944;28;19922;-50
2022/06/03 07:39:00;;;;;;;;;;;;;;;;;;5113625;28;19912;-51
2022/06/03 07:41:27;;;;;;;;;;;;;;;;;;5114702;28;20002;-60
2022/06/03 07:43:53;;;;;;;;;;;;;;;;;;5114808;28;19923;-49
2022/06/03 07:46:20;;;;;;;;;;;;;;;;;;5114552;28;19911;-61
2022/06/03 07:48:46;;;;;;;;;;;;;;;;;;5114511;28;20354;-57
2022/06/03 07:51:13;;;;;;;;;;;;;;;;;;5113791;28;19912;-53
2022/06/03 07:53:39;;;;;;;;;;;;;;;;;;5113788;28;20331;-49
2022/06/03 07:56:06;;;;;;;;;;;;;;;;;;5114671;28;19916;-57
2022/06/03 07:58:32;;;;;;;;;;;;;;;;;;5115089;28;19995;-58
2022/06/03 08:00:59;;;;;;;;;;;;;;;;;;5114363;28;20354;-50
2022/06/03 08:03:26;;;;;;;;;;;;;;;;;;5114787;28;19987;-53
2022/06/03 08:05:52;;;;;;;;;;;;;;;;;;5114748;27;20281;-55
2022/06/03 08:11:05;;;;;;;;;;;;;;;;;;5115023;28;20041;-46
2022/06/03 08:13:31;;;;;;;;;;;;;;;;;;5114310;28;19915;-54
2022/06/03 08:15:58;;;;;;;;;;;;;;;;;;5114678;28;19916;-61
2022/06/03 08:18:25;;;;;;;;;;;;;;;;;;5114163;28;19915;-45
2022/06/03 08:20:51;;;;;;;;;;;;;;;;;;5113294;28;19915;-43
2022/06/03 08:23:18;;;;;;;;;;;;;;;;;;5114311;28;19965;-54
2022/06/03 08:25:44;;;;;;;;;;;;;;;;;;5114472;28;20266;-57
2022/06/03 08:28:11;;;;;;;;;;;;;;;;;;5115494;28;19919;-49
2022/06/03 08:30:37;;;;;;;;;;;;;;;;;;5114366;28;19976;-60
2022/06/03 08:33:04;;;;;;;;;;;;;;;;;;5112641;28;19953;-49
2022/06/03 08:35:30;;;;;;;;;;;;;;;;;;5112279;28;19912;-55
2022/06/03 08:37:57;;;;;;;;;;;;;;;;;;5114024;28;19961;-51
2022/06/03 08:40:23;;;;;;;;;;;;;;;;;;5114150;28;19908;-49
2022/06/03 08:42:50;;;;;;;;;;;;;;;;;;5113588;28;19988;-49
2022/06/03 08:45:16;;;;;;;;;;;;;;;;;;5113865;28;19947;-55
2022/06/03 08:47:47;;;;;;;;;;;;;;;;;;5113999;28;19908;-51
2022/06/03 08:50:14;;;;;;;;;;;;;;;;;;5114110;28;19908;-48
2022/06/03 08:52:40;;;;;;;;;;;;;;;;;;5113381;28;19919;-59
2022/06/03 08:55:08;;;;;;;;;;;;;;;;;;5112240;28;19912;-56
2022/06/03 08:57:35;;;;;;;;;;;;;;;;;;5113939;28;19990;-55
2022/06/03 09:00:02;;;;;;;;;;;;;;;;;;5111819;28;19908;-49
2022/06/03 09:02:29;;;;;;;;;;;;;;;;;;5113128;28;19908;-51
2022/06/03 09:04:55;;;;;;;;;;;;;;;;;;5113083;28;19912;-59
2022/06/03 09:07:22;;;;;;;;;;;;;;;;;;5112858;28;19955;-46
2022/06/03 09:09:48;;;;;;;;;;;;;;;;;;5113016;27;19908;-48
2022/06/03 09:12:14;;;;;;;;;;;;;;;;;;5112685;28;19908;-54
2022/06/03 09:14:41;;;;;;;;;;;;;;;;;;5112832;28;19996;-48
2022/06/03 09:17:08;;;;;;;;;;;;;;;;;;5112596;28;19938;-52
2022/06/03 09:19:35;;;;;;;;;;;;;;;;;;5112769;28;19914;-47
2022/06/03 09:22:01;;;;;;;;;;;;;;;;;;5112961;28;19982;-50
2022/06/03 09:24:29;;;;;;;;;;;;;;;;;;5112834;28;19908;-44
2022/06/03 09:26:55;;;;;;;;;;;;;;;;;;5112068;28;19915;-52
2022/06/03 09:29:22;;;;;;;;;;;;;;;;;;5112920;28;19908;-46
2022/06/03 09:31:48;;;;;;;;;;;;;;;;;;5112479;28;20286;-51
2022/06/03 09:34:15;;;;;;;;;;;;;;;;;;5112947;28;19917;-53
2022/06/03 09:36:41;;;;;;;;;;;;;;;;;;5111829;28;20385;-60
2022/06/03 09:39:08;;;;;;;;;;;;;;;;;;5112338;28;19973;-50
2022/06/03 09:41:34;;;;;;;;;;;;;;;;;;5112725;28;20019;-53
2022/06/03 09:44:03;;;;;;;;;;;;;;;;;;5112249;28;19912;-55
2022/06/03 09:46:29;;;;;;;;;;;;;;;;;;5112215;28;19915;-50
2022/06/03 09:48:56;;;;;;;;;;;;;;;;;;5112319;28;20286;-52
2022/06/03 09:51:55;;;;;;;;;;;;;;;;;;5112565;28;19908;-54
2022/06/03 09:54:08;;;;;;;;;;;;;;;;;;5112821;28;20373;-57
2022/06/03 09:56:35;;;;;;;;;;;;;;;;;;5112630;28;19951;-56
2022/06/03 09:59:02;;;;;;;;;;;;;;;;;;5113176;28;20003;-52
2022/06/03 10:01:28;;;;;;;;;;;;;;;;;;5113138;28;20366;-47
2022/06/03 10:03:55;;;;;;;;;;;;;;;;;;5113229;28;19915;-56
2022/06/03 10:14:35;;;;;;;;;;;;;;;;;;5092744;28;19919;-55
2022/06/03 10:17:02;;;;;;;;;;;;;;;;;;5092253;28;20019;-53
2022/06/03 10:19:29;;;;;;;;;;;;;;;;;;5092398;28;20278;-58
2022/06/03 10:21:55;;;;;;;;;;;;;;;;;;5092252;28;20391;-52
2022/06/03 10:24:23;;;;;;;;;;;;;;;;;;5091037;28;20006;-49
2022/06/03 10:26:50;;;;;;;;;;;;;;;;;;5092147;28;19909;-57
2022/06/03 10:29:17;;;;;;;;;;;;;;;;;;5092285;28;19908;-54
2022/06/03 10:31:43;;;;;;;;;;;;;;;;;;5091832;28;19908;-48
2022/06/03 10:34:10;;;;;;;;;;;;;;;;;;5091971;28;20006;-55
2022/06/03 10:36:36;;;;;;;;;;;;;;;;;;5091204;28;19916;-54
2022/06/03 10:39:03;;;;;;;;;;;;;;;;;;5092024;28;20362;-54
2022/06/03 10:41:29;;;;;;;;;;;;;;;;;;5091773;28;19915;-55
2022/06/03 10:43:56;;;;;;;;;;;;;;;;;;5093812;28;19911;-50
2022/06/03 10:46:23;;;;;;;;;;;;;;;;;;5094887;28;19908;-49
2022/06/03 10:48:50;;;;;;;;;;;;;;;;;;5095680;28;20290;-49
2022/06/03 10:51:16;;;;;;;;;;;;;;;;;;5095893;28;20310;-54
2022/06/03 11:01:57;;;;;;;;;;;;;;;;;;5095655;28;20298;-52
2022/06/03 11:04:23;;;;;;;;;;;;;;;;;;5095232;28;19914;-59
2022/06/03 11:06:50;;;;;;;;;;;;;;;;;;5096240;28;19909;-51
2022/06/03 11:09:17;;;;;;;;;;;;;;;;;;5115178;28;19919;-49
2022/06/03 11:11:44;;;;;;;;;;;;;;;;;;5115658;28;20277;-47
2022/06/03 11:14:11;;;;;;;;;;;;;;;;;;5115683;28;19918;-54
2022/06/03 11:16:38;;;;;;;;;;;;;;;;;;5115340;28;20289;-51
2022/06/03 11:19:05;;;;;;;;;;;;;;;;;;5115532;28;19950;-49
2022/06/03 11:21:31;;;;;;;;;;;;;;;;;;5115406;28;20341;-60
2022/06/03 11:23:58;;;;;;;;;;;;;;;;;;5115496;28;19952;-60
2022/06/03 11:26:24;;;;;;;;;;;;;;;;;;5115741;28;19915;-55
2022/06/03 11:28:53;;;;;;;;;;;;;;;;;;5115533;28;19911;-60
2022/06/03 11:31:20;;;;;;;;;;;;;;;;;;5116019;28;19999;-59
2022/06/03 11:33:46;;;;;;;;;;;;;;;;;;5115936;28;20362;-59
2022/06/03 11:36:13;;;;;;;;;;;;;;;;;;5115461;28;19978;-55
2022/06/03 11:38:39;;;;;;;;;;;;;;;;;;5115404;28;19990;-51
2022/06/03 11:41:06;;;;;;;;;;;;;;;;;;5115312;28;20270;-57
2022/06/03 11:43:32;;;;;;;;;;;;;;;;;;5115693;28;19915;-48
2022/06/03 11:45:59;;;;;;;;;;;;;;;;;;5115777;28;19914;-58
2022/06/03 11:48:25;;;;;;;;;;;;;;;;;;5115359;28;20373;-59
2022/06/03 11:50:52;;;;;;;;;;;;;;;;;;5115469;28;19912;-55
2022/06/03 11:53:18;;;;;;;;;;;;;;;;;;5115425;28;19907;-51
2022/06/03 11:55:45;;;;;;;;;;;;;;;;;;5114575;28;20346;-49
2022/06/03 11:58:11;;;;;;;;;;;;;;;;;;5114661;28;19939;-61
2022/06/03 12:00:38;;;;;;;;;;;;;;;;;;5115436;28;19915;-48
2022/06/03 12:03:04;;;;;;;;;;;;;;;;;;5115485;28;19908;-49
2022/06/03 12:05:31;;;;;;;;;;;;;;;;;;5115343;28;19908;-48
2022/06/03 12:07:57;;;;;;;;;;;;;;;;;;5115435;28;19926;-45
2022/06/03 12:10:24;;;;;;;;;;;;;;;;;;5115112;28;19916;-44
2022/06/03 12:15:35;;;;;;;;;;;;;;;;;;5115028;28;20015;-53
2022/06/03 12:18:01;;;;;;;;;;;;;;;;;;5114968;28;19912;-58
2022/06/03 12:20:28;;;;;;;;;;;;;;;;;;5114909;28;19931;-46
2022/06/03 12:22:58;;;;;;;;;;;;;;;;;;5114898;28;20728;-41
2022/06/03 12:25:24;;;;;;;;;;;;;;;;;;5112433;28;19908;-54
2022/06/03 12:27:51;;;;;;;;;;;;;;;;;;5114497;28;19904;-51
2022/06/03 12:30:20;;;;;;;;;;;;;;;;;;5114840;28;19943;-47
2022/06/03 12:32:47;;;;;;;;;;;;;;;;;;5114319;28;19903;-44
2022/06/03 12:35:13;;;;;;;;;;;;;;;;;;5114356;28;19912;-42
2022/06/03 12:37:40;;;;;;;;;;;;;;;;;;5113629;28;19990;-44
2022/06/03 12:40:06;;;;;;;;;;;;;;;;;;5114264;28;19914;-49
2022/06/03 12:42:33;;;;;;;;;;;;;;;;;;5113980;28;20309;-48
2022/06/03 12:44:59;;;;;;;;;;;;;;;;;;5113861;28;20266;-47
2022/06/03 12:47:26;;;;;;;;;;;;;;;;;;5114074;28;20409;-55
2022/06/03 12:49:53;;;;;;;;;;;;;;;;;;5114185;28;20266;-52
2022/06/03 12:52:19;;;;;;;;;;;;;;;;;;5114024;28;19937;-44
2022/06/03 12:54:46;;;;;;;;;;;;;;;;;;5113777;28;20037;-55
2022/06/03 12:57:12;;;;;;;;;;;;;;;;;;5113874;28;19915;-56
2022/06/03 12:59:39;;;;;;;;;;;;;;;;;;5113394;27;19919;-48
2022/06/03 13:02:05;;;;;;;;;;;;;;;;;;5113880;28;19908;-46
2022/06/03 13:04:32;;;;;;;;;;;;;;;;;;5113183;28;19907;-43
2022/06/03 13:06:59;;;;;;;;;;;;;;;;;;5113224;28;19908;-47
2022/06/03 13:09:35;;;;;;;;;;;;;;;;;;5113664;28;19908;-53
2022/06/03 13:12:02;;;;;;;;;;;;;;;;;;5113692;28;19988;-53
2022/06/03 13:14:28;;;;;;;;;;;;;;;;;;5113303;28;19912;-43
2022/06/03 13:16:55;;;;;;;;;;;;;;;;;;5113804;28;19916;-52
2022/06/03 13:19:22;;;;;;;;;;;;;;;;;;5113501;28;19907;-44
2022/06/03 13:21:48;;;;;;;;;;;;;;;;;;5113417;28;19908;-51
2022/06/03 13:24:15;;;;;;;;;;;;;;;;;;5113678;28;19915;-46
2022/06/03 13:26:41;;;;;;;;;;;;;;;;;;5113537;28;19953;-51
2022/06/03 13:29:08;;;;;;;;;;;;;;;;;;5113793;28;19914;-54
2022/06/03 13:31:35;;;;;;;;;;;;;;;;;;5113844;28;19914;-48
2022/06/03 13:34:02;;;;;;;;;;;;;;;;;;5113431;28;20048;-52
2022/06/03 13:36:30;;;;;;;;;;;;;;;;;;5113358;28;19916;-56
2022/06/03 13:38:57;;;;;;;;;;;;;;;;;;5113357;28;20315;-57
2022/06/03 13:44:08;;;;;;;;;;;;;;;;;;5113647;28;19978;-55
2022/06/03 13:46:35;;;;;;;;;;;;;;;;;;5113417;28;19907;-54
2022/06/03 13:49:01;;;;;;;;;;;;;;;;;;5113424;28;19982;-55
2022/06/03 13:51:28;;;;;;;;;;;;;;;;;;5113666;28;19908;-53
2022/06/03 13:53:54;;;;;;;;;;;;;;;;;;5113472;28;19961;-54
2022/06/03 13:56:22;;;;;;;;;;;;;;;;;;5113421;28;20358;-53
2022/06/03 13:58:48;;;;;;;;;;;;;;;;;;5113084;28;20285;-54
2022/06/03 14:01:15;;;;;;;;;;;;;;;;;;5113364;28;19939;-48
2022/06/03 14:03:41;;;;;;;;;;;;;;;;;;5113337;28;19955;-48
2022/06/03 14:06:08;;;;;;;;;;;;;;;;;;5113129;28;19960;-58
2022/06/03 14:08:34;;;;;;;;;;;;;;;;;;5112972;28;20386;-58
2022/06/03 14:11:01;;;;;;;;;;;;;;;;;;5113334;28;19911;-49
2022/06/03 14:13:30;;;;;;;;;;;;;;;;;;5113269;28;20399;-58
2022/06/03 14:15:57;;;;;;;;;;;;;;;;;;5113251;28;19919;-58
2022/06/03 14:18:23;;;;;;;;;;;;;;;;;;5114454;28;19914;-59
2022/06/03 14:20:52;;;;;;;;;;;;;;;;;;5117159;28;19912;-56
2022/06/03 14:23:18;;;;;;;;;;;;;;;;;;5117005;28;20017;-52
2022/06/03 14:25:45;;;;;;;;;;;;;;;;;;5115729;27;19908;-54
2022/06/03 14:28:12;;;;;;;;;;;;;;;;;;5115830;28;20199;-54
2022/06/03 14:30:38;;;;;;;;;;;;;;;;;;5116591;28;20255;-55
2022/06/03 14:33:05;;;;;;;;;;;;;;;;;;5116473;28;19999;-57
2022/06/03 14:35:31;;;;;;;;;;;;;;;;;;5116080;28;19912;-56
2022/06/03 14:37:58;;;;;;;;;;;;;;;;;;5116753;28;19911;-60
2022/06/03 14:40:24;;;;;;;;;;;;;;;;;;5116492;28;19912;-55
2022/06/03 14:42:51;;;;;;;;;;;;;;;;;;5116484;28;19939;-59
2022/06/03 14:45:18;;;;;;;;;;;;;;;;;;5114916;28;19960;-55
2022/06/03 14:47:44;;;;;;;;;;;;;;;;;;5116290;28;19908;-58
2022/06/03 14:50:11;;;;;;;;;;;;;;;;;;5116010;28;19947;-50
2022/06/03 14:52:37;;;;;;;;;;;;;;;;;;5115938;28;19907;-56
2022/06/03 14:55:04;;;;;;;;;;;;;;;;;;5116470;28;19903;-53
2022/06/03 14:57:30;;;;;;;;;;;;;;;;;;5114954;28;19926;-58
2022/06/03 14:59:57;;;;;;;;;;;;;;;;;;5116445;28;20286;-58
2022/06/03 15:02:23;;;;;;;;;;;;;;;;;;5115898;28;20358;-50
2022/06/03 15:04:51;;;;;;;;;;;;;;;;;;5115988;28;19915;-58
2022/06/03 15:07:18;;;;;;;;;;;;;;;;;;5115841;28;20004;-52
2022/06/03 15:09:45;;;;;;;;;;;;;;;;;;5115823;28;19934;-54
2022/06/03 15:12:12;;;;;;;;;;;;;;;;;;5115729;28;19912;-59
2022/06/03 15:14:38;;;;;;;;;;;;;;;;;;5115682;28;19908;-57
2022/06/03 15:17:05;;;;;;;;;;;;;;;;;;5115966;28;19961;-59
2022/06/03 15:19:31;;;;;;;;;;;;;;;;;;5115778;28;19908;-52
2022/06/03 15:21:58;;;;;;;;;;;;;;;;;;5115954;27;19908;-58
2022/06/03 15:24:24;;;;;;;;;;;;;;;;;;5115892;28;19931;-46
2022/06/03 15:26:51;;;;;;;;;;;;;;;;;;5116339;28;19918;-54
2022/06/03 15:29:17;;;;;;;;;;;;;;;;;;5114688;28;19908;-58
2022/06/03 15:31:44;;;;;;;;;;;;;;;;;;5116178;28;19908;-49
2022/06/03 15:34:10;;;;;;;;;;;;;;;;;;5115878;28;19908;-54
2022/06/03 15:36:37;;;;;;;;;;;;;;;;;;5115721;28;20025;-50
2022/06/03 15:39:03;;;;;;;;;;;;;;;;;;5115950;28;19908;-54
2022/06/03 15:41:30;;;;;;;;;;;;;;;;;;5116039;28;19915;-54
2022/06/03 15:43:56;;;;;;;;;;;;;;;;;;5116065;28;19933;-52
2022/06/03 15:46:23;;;;;;;;;;;;;;;;;;5115522;28;19912;-52
2022/06/03 15:48:49;;;;;;;;;;;;;;;;;;5115476;28;19987;-56
2022/06/03 15:51:15;;;;;;;;;;;;;;;;;;5115665;28;19908;-50
2022/06/03 15:53:42;;;;;;;;;;;;;;;;;;5115791;28;20372;-55
2022/06/03 15:56:09;;;;;;;;;;;;;;;;;;5115870;28;20014;-54
2022/06/03 15:58:35;;;;;;;;;;;;;;;;;;5115427;28;19947;-48
2022/06/03 16:01:03;;;;;;;;;;;;;;;;;;5115525;28;19908;-57
2022/06/03 16:03:29;;;;;;;;;;;;;;;;;;5115589;28;20366;-52
2022/06/03 16:05:57;;;;;;;;;;;;;;;;;;5115372;28;19954;-59
2022/06/03 16:08:24;;;;;;;;;;;;;;;;;;5115288;28;19965;-41
2022/06/03 16:10:50;;;;;;;;;;;;;;;;;;5115539;28;20262;-51
2022/06/03 16:13:17;;;;;;;;;;;;;;;;;;5115330;28;19908;-57
2022/06/03 16:15:43;;;;;;;;;;;;;;;;;;5115137;28;19911;-56
2022/06/03 16:18:10;;;;;;;;;;;;;;;;;;5115239;28;20057;-59
2022/06/03 16:20:36;;;;;;;;;;;;;;;;;;5113787;28;19907;-53
2022/06/03 16:23:03;;;;;;;;;;;;;;;;;;5115409;28;19912;-58
2022/06/03 16:25:29;;;;;;;;;;;;;;;;;;5113558;28;20384;-57
2022/06/03 16:27:56;;;;;;;;;;;;;;;;;;5114820;28;19919;-58
2022/06/03 16:30:23;;;;;;;;;;;;;;;;;;5114508;28;19908;-54
2022/06/03 16:32:50;;;;;;;;;;;;;;;;;;5115470;28;19908;-51
2022/06/03 16:35:16;;;;;;;;;;;;;;;;;;5115469;28;19912;-53
2022/06/03 16:37:43;;;;;;;;;;;;;;;;;;5114702;28;19907;-47
2022/06/03 16:40:09;;;;;;;;;;;;;;;;;;5114288;28;20351;-46
2022/06/03 16:42:36;;;;;;;;;;;;;;;;;;5112181;28;20346;-52
2022/06/03 16:45:02;;;;;;;;;;;;;;;;;;5114525;28;19912;-47
2022/06/03 16:47:29;;;;;;;;;;;;;;;;;;5114323;28;19915;-49
2022/06/03 16:49:55;;;;;;;;;;;;;;;;;;5113938;28;20273;-46
2022/06/03 16:52:22;;;;;;;;;;;;;;;;;;5114067;28;19950;-56
2022/06/03 16:54:48;;;;;;;;;;;;;;;;;;5114108;28;19914;-51
2022/06/03 16:57:15;;;;;;;;;;;;;;;;;;5113871;28;19916;-55
2022/06/03 16:59:41;;;;;;;;;;;;;;;;;;5113729;28;20127;-56
2022/06/03 17:02:08;;;;;;;;;;;;;;;;;;5113855;28;20359;-57
2022/06/03 17:04:34;;;;;;;;;;;;;;;;;;5113535;28;19991;-55
2022/06/03 17:07:01;;;;;;;;;;;;;;;;;;5114065;28;19912;-54
2022/06/03 17:09:27;;;;;;;;;;;;;;;;;;5113995;28;19939;-50